createdAt,value
2017-06-22T00:00:38.920Z,0
2017-06-22T00:01:38.610Z,0
2017-06-22T00:02:38.600Z,0
2017-06-22T00:03:38.583Z,0
2017-06-22T00:04:38.879Z,0
2017-06-22T00:05:38.570Z,0
2017-06-22T00:06:38.566Z,0
2017-06-22T00:07:38.549Z,0
2017-06-22T00:08:38.545Z,0
2017-06-22T00:09:38.534Z,0
2017-06-22T00:10:38.529Z,0
2017-06-22T00:11:38.520Z,0
2017-06-22T00:12:38.498Z,0
2017-06-22T00:13:38.197Z,0
2017-06-22T00:14:38.489Z,0
2017-06-22T00:15:38.780Z,0
2017-06-22T00:16:38.469Z,0
2017-06-22T00:17:38.761Z,0
2017-06-22T00:18:38.775Z,0
2017-06-22T00:19:38.442Z,0
2017-06-22T00:20:38.434Z,0
2017-06-22T00:21:38.728Z,0
2017-06-22T00:22:38.416Z,0
2017-06-22T00:23:38.410Z,0
2017-06-22T00:24:38.399Z,0
2017-06-22T00:25:38.698Z,0
2017-06-22T00:26:38.689Z,0
2017-06-22T00:27:38.680Z,0
2017-06-22T00:28:38.666Z,0
2017-06-22T00:29:38.051Z,0
2017-06-22T00:30:38.648Z,0
2017-06-22T00:31:38.035Z,0
2017-06-22T00:32:38.622Z,0
2017-06-22T00:33:38.618Z,0
2017-06-22T00:34:38.612Z,0
2017-06-22T00:35:38.601Z,0
2017-06-22T00:36:38.598Z,0
2017-06-22T00:37:38.286Z,0
2017-06-22T00:38:38.578Z,0
2017-06-22T00:39:38.573Z,0
2017-06-22T00:40:38.563Z,0
2017-06-22T00:41:38.547Z,0
2017-06-22T00:42:38.576Z,0
2017-06-22T00:43:38.531Z,0
2017-06-22T00:44:38.519Z,0
2017-06-22T00:45:38.512Z,0
2017-06-22T00:46:38.208Z,0
2017-06-22T00:47:38.494Z,0
2017-06-22T00:48:38.490Z,0
2017-06-22T00:49:38.475Z,0
2017-06-22T00:50:38.465Z,0
2017-06-22T00:51:38.464Z,0
2017-06-22T00:52:38.448Z,0
2017-06-22T00:53:38.450Z,0
2017-06-22T00:54:38.457Z,0
2017-06-22T00:55:38.427Z,0
2017-06-22T00:56:38.418Z,0
2017-06-22T00:57:38.399Z,0
2017-06-22T00:58:38.399Z,0
2017-06-22T00:59:38.084Z,0
2017-06-22T01:00:38.372Z,0
2017-06-22T01:01:38.368Z,0
2017-06-22T01:02:38.357Z,0
2017-06-22T01:03:38.040Z,0
2017-06-22T01:04:38.339Z,0
2017-06-22T01:05:38.329Z,0
2017-06-22T01:06:38.321Z,0
2017-06-22T01:07:38.310Z,0
2017-06-22T01:08:38.003Z,0
2017-06-22T01:09:38.292Z,0
2017-06-22T01:10:38.286Z,0
2017-06-22T01:11:37.971Z,0
2017-06-22T01:12:37.968Z,0
2017-06-22T01:13:38.255Z,0
2017-06-22T01:14:38.253Z,0
2017-06-22T01:15:38.248Z,0
2017-06-22T01:16:38.234Z,0
2017-06-22T01:17:38.219Z,0
2017-06-22T01:18:37.905Z,0
2017-06-22T01:19:38.195Z,0
2017-06-22T01:20:38.197Z,0
2017-06-22T01:21:38.181Z,0
2017-06-22T01:22:37.870Z,0
2017-06-22T01:23:38.163Z,0
2017-06-22T01:24:38.151Z,0
2017-06-22T01:25:37.857Z,0
2017-06-22T01:26:38.138Z,0
2017-06-22T01:27:38.117Z,0
2017-06-22T01:28:38.114Z,0
2017-06-22T01:29:38.106Z,0
2017-06-22T01:30:38.098Z,0
2017-06-22T01:31:37.782Z,0
2017-06-22T01:32:38.076Z,0
2017-06-22T01:33:38.065Z,0
2017-06-22T01:34:37.759Z,0
2017-06-22T01:35:38.046Z,0
2017-06-22T01:36:38.038Z,0
2017-06-22T01:37:38.027Z,0
2017-06-22T01:38:37.724Z,0
2017-06-22T01:39:37.713Z,0
2017-06-22T01:40:38.003Z,0
2017-06-22T01:41:37.705Z,0
2017-06-22T01:42:37.683Z,0
2017-06-22T01:43:37.669Z,0
2017-06-22T01:44:37.658Z,0
2017-06-22T01:45:37.956Z,0
2017-06-22T01:46:37.646Z,0
2017-06-22T01:47:37.939Z,0
2017-06-22T01:48:37.923Z,0
2017-06-22T01:49:37.918Z,0
2017-06-22T01:50:37.909Z,0
2017-06-22T01:51:37.899Z,0
2017-06-22T01:52:37.889Z,0
2017-06-22T01:53:37.885Z,0
2017-06-22T01:54:37.870Z,0
2017-06-22T01:55:37.857Z,0
2017-06-22T01:56:37.579Z,0
2017-06-22T01:57:37.845Z,0
2017-06-22T01:58:37.837Z,0
2017-06-22T01:59:37.849Z,0
2017-06-22T02:00:37.817Z,0
2017-06-22T02:01:37.810Z,0
2017-06-22T02:02:37.794Z,0
2017-06-22T02:03:37.794Z,0
2017-06-22T02:04:37.774Z,0
2017-06-22T02:05:37.773Z,0
2017-06-22T02:06:37.755Z,0
2017-06-22T02:07:37.751Z,0
2017-06-22T02:08:37.448Z,0
2017-06-22T02:09:37.740Z,0
2017-06-22T02:10:37.726Z,0
2017-06-22T02:11:37.717Z,0
2017-06-22T02:12:37.713Z,0
2017-06-22T02:13:37.693Z,0
2017-06-22T02:14:37.683Z,0
2017-06-22T02:15:37.675Z,0
2017-06-22T02:16:37.669Z,0
2017-06-22T02:17:37.661Z,0
2017-06-22T02:18:37.643Z,0
2017-06-22T02:19:37.053Z,0
2017-06-22T02:20:37.028Z,0
2017-06-22T02:21:37.323Z,0
2017-06-22T02:22:37.616Z,0
2017-06-22T02:23:37.600Z,0
2017-06-22T02:24:37.615Z,0
2017-06-22T02:25:37.280Z,0
2017-06-22T02:26:36.973Z,0
2017-06-22T02:27:37.566Z,0
2017-06-22T02:28:37.554Z,0
2017-06-22T02:29:37.246Z,0
2017-06-22T02:30:37.541Z,0
2017-06-22T02:31:36.921Z,0
2017-06-22T02:32:37.215Z,0
2017-06-22T02:33:37.209Z,0
2017-06-22T02:34:36.889Z,0
2017-06-22T02:35:37.481Z,0
2017-06-22T02:36:37.482Z,0
2017-06-22T02:37:36.865Z,0
2017-06-22T02:38:37.158Z,0
2017-06-22T02:39:37.146Z,0
2017-06-22T02:40:37.442Z,0
2017-06-22T02:41:37.130Z,0
2017-06-22T02:42:37.118Z,0
2017-06-22T02:43:37.109Z,0
2017-06-22T02:44:37.398Z,0
2017-06-22T02:45:37.089Z,0
2017-06-22T02:46:37.084Z,0
2017-06-22T02:47:37.076Z,0
2017-06-22T02:48:37.065Z,0
2017-06-22T02:49:37.052Z,0
2017-06-22T02:50:37.045Z,0
2017-06-22T02:51:37.032Z,0
2017-06-22T02:52:37.038Z,0
2017-06-22T02:53:37.316Z,0
2017-06-22T02:54:37.002Z,0
2017-06-22T02:55:37.026Z,0
2017-06-22T02:56:36.995Z,0
2017-06-22T02:57:37.285Z,0
2017-06-22T02:58:37.267Z,0
2017-06-22T02:59:36.658Z,0
2017-06-22T03:00:37.256Z,0
2017-06-22T03:01:36.945Z,0
2017-06-22T03:02:36.932Z,0
2017-06-22T03:03:37.226Z,0
2017-06-22T03:04:37.218Z,0
2017-06-22T03:05:37.204Z,0
2017-06-22T03:06:37.199Z,0
2017-06-22T03:07:37.185Z,0
2017-06-22T03:08:37.176Z,0
2017-06-22T03:09:36.865Z,5
2017-06-22T03:10:37.162Z,5
2017-06-22T03:11:37.177Z,5
2017-06-22T03:12:37.144Z,5
2017-06-22T03:13:37.129Z,10
2017-06-22T03:14:37.118Z,10
2017-06-22T03:15:36.808Z,10
2017-06-22T03:16:37.106Z,10
2017-06-22T03:17:37.090Z,10
2017-06-22T03:18:37.087Z,15
2017-06-22T03:19:37.076Z,15
2017-06-22T03:20:37.062Z,20
2017-06-22T03:21:37.054Z,20
2017-06-22T03:22:37.050Z,20
2017-06-22T03:23:36.731Z,25
2017-06-22T03:24:37.025Z,25
2017-06-22T03:25:37.017Z,30
2017-06-22T03:26:37.007Z,30
2017-06-22T03:27:36.998Z,30
2017-06-22T03:28:36.991Z,30
2017-06-22T03:29:36.978Z,35
2017-06-22T03:30:36.970Z,35
2017-06-22T03:31:36.963Z,40
2017-06-22T03:32:36.346Z,45
2017-06-22T03:33:36.640Z,45
2017-06-22T03:34:36.932Z,50
2017-06-22T03:35:36.924Z,50
2017-06-22T03:36:36.915Z,45
2017-06-22T03:37:36.904Z,40
2017-06-22T03:38:36.898Z,40
2017-06-22T03:39:36.885Z,50
2017-06-22T03:40:36.882Z,50
2017-06-22T03:41:36.862Z,55
2017-06-22T03:42:36.864Z,60
2017-06-22T03:43:36.848Z,60
2017-06-22T03:44:36.840Z,60
2017-06-22T03:45:36.538Z,60
2017-06-22T03:46:36.821Z,70
2017-06-22T03:47:36.507Z,70
2017-06-22T03:48:36.799Z,50
2017-06-22T03:49:36.788Z,60
2017-06-22T03:50:36.788Z,60
2017-06-22T03:51:36.770Z,70
2017-06-22T03:52:36.784Z,85
2017-06-22T03:53:36.756Z,95
2017-06-22T03:54:36.750Z,100
2017-06-22T03:55:36.132Z,100
2017-06-22T03:56:36.737Z,105
2017-06-22T03:57:36.723Z,110
2017-06-22T03:58:36.710Z,115
2017-06-22T03:59:36.399Z,125
2017-06-22T04:00:36.691Z,120
2017-06-22T04:01:36.903Z,120
2017-06-22T04:02:36.677Z,130
2017-06-22T04:03:36.669Z,140
2017-06-22T04:04:36.354Z,140
2017-06-22T04:05:36.342Z,135
2017-06-22T04:06:36.336Z,140
2017-06-22T04:07:36.630Z,150
2017-06-22T04:08:36.617Z,150
2017-06-22T04:09:36.611Z,165
2017-06-22T04:10:36.594Z,165
2017-06-22T04:11:36.592Z,175
2017-06-22T04:12:36.584Z,185
2017-06-22T04:13:36.570Z,180
2017-06-22T04:14:36.561Z,170
2017-06-22T04:15:36.562Z,165
2017-06-22T04:16:36.549Z,170
2017-06-22T04:17:36.238Z,170
2017-06-22T04:18:36.527Z,170
2017-06-22T04:19:36.515Z,175
2017-06-22T04:20:36.208Z,195
2017-06-22T04:21:36.493Z,265
2017-06-22T04:22:36.492Z,350
2017-06-22T04:23:35.874Z,320
2017-06-22T04:24:36.465Z,305
2017-06-22T04:25:35.858Z,365
2017-06-22T04:26:36.448Z,370
2017-06-22T04:27:36.443Z,325
2017-06-22T04:28:36.436Z,300
2017-06-22T04:29:36.428Z,285
2017-06-22T04:30:36.419Z,270
2017-06-22T04:31:36.105Z,305
2017-06-22T04:32:36.404Z,355
2017-06-22T04:33:36.592Z,310
2017-06-22T04:34:36.082Z,265
2017-06-22T04:35:36.070Z,275
2017-06-22T04:36:36.061Z,300
2017-06-22T04:37:36.353Z,320
2017-06-22T04:38:36.260Z,310
2017-06-22T04:39:36.533Z,310
2017-06-22T04:40:36.022Z,350
2017-06-22T04:41:36.315Z,360
2017-06-22T04:42:36.310Z,405
2017-06-22T04:43:35.995Z,530
2017-06-22T04:44:36.190Z,390
2017-06-22T04:45:36.278Z,365
2017-06-22T04:46:36.268Z,400
2017-06-22T04:47:36.268Z,350
2017-06-22T04:48:36.243Z,300
2017-06-22T04:49:36.237Z,290
2017-06-22T04:50:35.932Z,315
2017-06-22T04:51:36.223Z,320
2017-06-22T04:52:35.912Z,335
2017-06-22T04:53:36.202Z,405
2017-06-22T04:54:36.195Z,515
2017-06-22T04:55:36.193Z,500
2017-06-22T04:56:35.877Z,480
2017-06-22T04:57:36.171Z,445
2017-06-22T04:58:36.166Z,460
2017-06-22T04:59:35.850Z,480
2017-06-22T05:00:36.148Z,515
2017-06-22T05:01:35.842Z,555
2017-06-22T05:02:36.121Z,545
2017-06-22T05:03:36.118Z,470
2017-06-22T05:04:36.114Z,495
2017-06-22T05:05:36.102Z,575
2017-06-22T05:06:36.089Z,835
2017-06-22T05:07:36.085Z,635
2017-06-22T05:08:36.070Z,630
2017-06-22T05:09:36.084Z,670
2017-06-22T05:10:36.054Z,610
2017-06-22T05:11:36.265Z,580
2017-06-22T05:12:36.045Z,440
2017-06-22T05:13:35.726Z,535
2017-06-22T05:14:36.024Z,600
2017-06-22T05:15:36.012Z,655
2017-06-22T05:16:36.213Z,440
2017-06-22T05:17:49.082Z,425
2017-06-22T05:18:35.980Z,490
2017-06-22T05:19:35.979Z,480
2017-06-22T05:20:35.968Z,505
2017-06-22T05:21:35.955Z,780
2017-06-22T05:22:35.647Z,785
2017-06-22T05:23:35.942Z,540
2017-06-22T05:24:35.634Z,530
2017-06-22T05:25:35.930Z,530
2017-06-22T05:26:35.920Z,600
2017-06-22T05:27:35.909Z,805
2017-06-22T05:28:35.901Z,870
2017-06-22T05:29:35.885Z,725
2017-06-22T05:30:35.876Z,770
2017-06-22T05:31:35.875Z,995
2017-06-22T05:32:35.865Z,850
2017-06-22T05:33:35.864Z,775
2017-06-22T05:34:35.843Z,900
2017-06-22T05:35:35.833Z,755
2017-06-22T05:36:35.825Z,945
2017-06-22T05:37:35.813Z,920
2017-06-22T05:38:35.508Z,850
2017-06-22T05:39:35.796Z,745
2017-06-22T05:40:35.788Z,535
2017-06-22T05:41:35.783Z,450
2017-06-22T05:42:35.769Z,665
2017-06-22T05:43:35.768Z,665
2017-06-22T05:44:35.154Z,780
2017-06-22T05:45:35.746Z,1060
2017-06-22T05:46:35.736Z,960
2017-06-22T05:47:35.723Z,900
2017-06-22T05:48:35.922Z,730
2017-06-22T05:49:35.708Z,1225
2017-06-22T05:50:35.399Z,1175
2017-06-22T05:51:35.390Z,770
2017-06-22T05:52:35.381Z,620
2017-06-22T05:53:35.683Z,535
2017-06-22T05:54:35.870Z,720
2017-06-22T05:55:35.357Z,1305
2017-06-22T05:56:35.655Z,1020
2017-06-22T05:57:35.645Z,695
2017-06-22T05:58:35.632Z,625
2017-06-22T05:59:35.626Z,740
2017-06-22T06:00:35.621Z,560
2017-06-22T06:01:35.614Z,630
2017-06-22T06:02:35.600Z,550
2017-06-22T06:03:35.590Z,490
2017-06-22T06:04:35.581Z,455
2017-06-22T06:05:35.576Z,365
2017-06-22T06:06:35.273Z,510
2017-06-22T06:07:35.247Z,665
2017-06-22T06:08:35.543Z,875
2017-06-22T06:09:35.538Z,740
2017-06-22T06:10:35.524Z,620
2017-06-22T06:11:35.520Z,550
2017-06-22T06:12:35.504Z,740
2017-06-22T06:13:34.893Z,765
2017-06-22T06:14:35.489Z,825
2017-06-22T06:15:35.480Z,655
2017-06-22T06:16:35.471Z,1310
2017-06-22T06:17:35.469Z,2005
2017-06-22T06:18:35.448Z,1225
2017-06-22T06:19:35.144Z,1135
2017-06-22T06:20:35.435Z,2055
2017-06-22T06:21:35.426Z,1225
2017-06-22T06:22:35.112Z,940
2017-06-22T06:23:35.409Z,835
2017-06-22T06:24:34.797Z,1260
2017-06-22T06:25:35.391Z,960
2017-06-22T06:26:35.599Z,825
2017-06-22T06:27:35.377Z,1000
2017-06-22T06:28:35.363Z,1255
2017-06-22T06:29:35.053Z,1345
2017-06-22T06:30:35.355Z,1005
2017-06-22T06:31:35.543Z,1035
2017-06-22T06:32:35.539Z,1025
2017-06-22T06:33:35.326Z,1355
2017-06-22T06:35:35.005Z,1230
2017-06-22T06:36:34.990Z,1200
2017-06-22T06:37:35.283Z,1360
2017-06-22T06:38:35.279Z,1365
2017-06-22T06:39:34.663Z,1475
2017-06-22T06:40:34.953Z,1460
2017-06-22T06:41:34.644Z,1845
2017-06-22T06:42:35.242Z,2505
2017-06-22T06:43:35.238Z,1845
2017-06-22T06:44:34.924Z,1190
2017-06-22T06:45:35.212Z,1060
2017-06-22T06:46:35.220Z,1700
2017-06-22T06:47:34.895Z,1280
2017-06-22T06:48:35.191Z,1225
2017-06-22T06:49:34.881Z,870
2017-06-22T06:50:34.565Z,1070
2017-06-22T06:51:34.861Z,1455
2017-06-22T06:52:34.850Z,1640
2017-06-22T06:53:34.843Z,1705
2017-06-22T06:54:34.828Z,1830
2017-06-22T06:55:34.829Z,2925
2017-06-22T06:56:35.125Z,1270
2017-06-22T06:57:34.808Z,1695
2017-06-22T06:58:34.798Z,1875
2017-06-22T06:59:34.793Z,2095
2017-06-22T07:00:34.778Z,1815
2017-06-22T07:01:34.774Z,1535
2017-06-22T07:02:35.072Z,1135
2017-06-22T07:03:35.094Z,1545
2017-06-22T07:04:35.052Z,2665
2017-06-22T07:05:35.053Z,2970
2017-06-22T07:06:35.040Z,1605
2017-06-22T07:07:35.029Z,1490
2017-06-22T07:08:34.925Z,1230
2017-06-22T07:09:34.711Z,1110
2017-06-22T07:10:34.701Z,2740
2017-06-22T07:11:34.696Z,1580
2017-06-22T07:12:34.993Z,2155
2017-06-22T07:13:34.682Z,1335
2017-06-22T07:14:34.671Z,1185
2017-06-22T07:15:34.668Z,1415
2017-06-22T07:16:34.658Z,3090
2017-06-22T07:17:34.948Z,1570
2017-06-22T07:18:34.636Z,1450
2017-06-22T07:19:34.946Z,1240
2017-06-22T07:20:34.633Z,2235
2017-06-22T07:21:34.616Z,1735
2017-06-22T07:22:34.914Z,1975
2017-06-22T07:23:34.599Z,1795
2017-06-22T07:24:34.591Z,2300
2017-06-22T07:25:34.582Z,1205
2017-06-22T07:26:34.881Z,1320
2017-06-22T07:27:34.871Z,3340
2017-06-22T07:28:34.558Z,1640
2017-06-22T07:29:34.853Z,3525
2017-06-22T07:30:34.542Z,2195
2017-06-22T07:31:34.839Z,3790
2017-06-22T07:32:34.530Z,1600
2017-06-22T07:33:34.822Z,1680
2017-06-22T07:34:34.806Z,2035
2017-06-22T07:35:34.808Z,2015
2017-06-22T07:36:34.802Z,1715
2017-06-22T07:37:34.495Z,1515
2017-06-22T07:38:34.782Z,1825
2017-06-22T07:39:34.779Z,2790
2017-06-22T07:40:34.465Z,1825
2017-06-22T07:41:34.768Z,3710
2017-06-22T07:42:34.444Z,3325
2017-06-22T07:43:34.747Z,3660
2017-06-22T07:44:34.439Z,3720
2017-06-22T07:45:34.427Z,3215
2017-06-22T07:46:34.423Z,3090
2017-06-22T07:47:34.614Z,3120
2017-06-22T07:48:34.407Z,3135
2017-06-22T07:49:34.394Z,3060
2017-06-22T07:50:34.389Z,3235
2017-06-22T07:51:34.391Z,3290
2017-06-22T07:52:34.386Z,3445
2017-06-22T07:53:34.378Z,3665
2017-06-22T07:54:34.364Z,2815
2017-06-22T07:55:34.053Z,3195
2017-06-22T07:56:34.059Z,3285
2017-06-22T07:57:34.345Z,3355
2017-06-22T07:58:34.340Z,3060
2017-06-22T07:59:34.639Z,3365
2017-06-22T08:00:34.635Z,2900
2017-06-22T08:01:34.323Z,2580
2017-06-22T08:02:34.316Z,3055
2017-06-22T08:03:34.308Z,3050
2017-06-22T08:04:34.305Z,2930
2017-06-22T08:05:34.601Z,3085
2017-06-22T08:06:34.291Z,3380
2017-06-22T08:07:34.584Z,3290
2017-06-22T08:08:33.674Z,3235
2017-06-22T08:09:34.575Z,3265
2017-06-22T08:10:34.571Z,3505
2017-06-22T08:11:33.961Z,3775
2017-06-22T08:12:33.954Z,3650
2017-06-22T08:13:33.949Z,3630
2017-06-22T08:14:34.244Z,3610
2017-06-22T08:15:34.439Z,3805
2017-06-22T08:16:34.533Z,4315
2017-06-22T08:17:34.225Z,3880
2017-06-22T08:18:34.369Z,3480
2017-06-22T08:19:34.506Z,3880
2017-06-22T08:20:34.509Z,3325
2017-06-22T08:21:34.511Z,2885
2017-06-22T08:22:34.189Z,2970
2017-06-22T08:23:34.194Z,3130
2017-06-22T08:24:34.478Z,3140
2017-06-22T08:25:34.478Z,3520
2017-06-22T08:26:33.869Z,3635
2017-06-22T08:27:34.473Z,3775
2017-06-22T08:28:33.853Z,3580
2017-06-22T08:29:34.452Z,3110
2017-06-22T08:30:34.143Z,2735
2017-06-22T08:31:34.152Z,3260
2017-06-22T08:32:34.437Z,3570
2017-06-22T08:33:34.429Z,2845
2017-06-22T08:34:34.427Z,3210
2017-06-22T08:35:34.417Z,3670
2017-06-22T08:36:34.413Z,3010
2017-06-22T08:37:34.410Z,2910
2017-06-22T08:38:34.401Z,3360
2017-06-22T08:39:34.402Z,3100
2017-06-22T08:40:34.389Z,3340
2017-06-22T08:41:33.790Z,3580
2017-06-22T08:42:34.381Z,3485
2017-06-22T08:43:34.075Z,3245
2017-06-22T08:44:34.375Z,3485
2017-06-22T08:45:34.366Z,3250
2017-06-22T08:46:34.069Z,2790
2017-06-22T08:47:34.359Z,3300
2017-06-22T08:48:34.363Z,4030
2017-06-22T08:49:34.347Z,4020
2017-06-22T08:50:34.341Z,4305
2017-06-22T08:51:34.339Z,3970
2017-06-22T08:52:34.335Z,3625
2017-06-22T08:53:34.337Z,3735
2017-06-22T08:54:34.328Z,3805
2017-06-22T08:55:34.324Z,3780
2017-06-22T08:56:34.026Z,3860
2017-06-22T08:57:34.320Z,3850
2017-06-22T08:58:34.004Z,3555
2017-06-22T08:59:34.005Z,3540
2017-06-22T09:00:34.005Z,3645
2017-06-22T09:01:34.300Z,3985
2017-06-22T09:02:33.993Z,4140
2017-06-22T09:03:33.990Z,4205
2017-06-22T09:04:34.284Z,4015
2017-06-22T09:05:34.289Z,4080
2017-06-22T09:06:33.978Z,3815
2017-06-22T09:07:34.271Z,3360
2017-06-22T09:08:33.971Z,3735
2017-06-22T09:09:33.667Z,4000
2017-06-22T09:10:34.262Z,4395
2017-06-22T09:11:34.265Z,4495
2017-06-22T09:12:34.254Z,3605
2017-06-22T09:13:33.966Z,3580
2017-06-22T09:14:33.942Z,4330
2017-06-22T09:15:34.238Z,4115
2017-06-22T09:16:33.635Z,3860
2017-06-22T09:17:33.630Z,4665
2017-06-22T09:18:33.927Z,4540
2017-06-22T09:19:34.228Z,4335
2017-06-22T09:20:33.924Z,4080
2017-06-22T09:21:33.921Z,3505
2017-06-22T09:22:33.608Z,3750
2017-06-22T09:23:33.908Z,3965
2017-06-22T09:24:33.901Z,3735
2017-06-22T09:25:33.894Z,3530
2017-06-22T09:26:33.887Z,3965
2017-06-22T09:27:34.188Z,4865
2017-06-22T09:28:34.182Z,4995
2017-06-22T09:29:34.174Z,4455
2017-06-22T09:30:34.181Z,4765
2017-06-22T09:31:34.164Z,5485
2017-06-22T09:32:34.163Z,3825
2017-06-22T09:33:34.183Z,3105
2017-06-22T09:34:33.844Z,4415
2017-06-22T09:35:33.853Z,4350
2017-06-22T09:36:34.143Z,4270
2017-06-22T09:37:33.831Z,4375
2017-06-22T09:38:33.828Z,4650
2017-06-22T09:39:34.120Z,4685
2017-06-22T09:40:33.824Z,4600
2017-06-22T09:41:33.837Z,4670
2017-06-22T09:42:34.127Z,4080
2017-06-22T09:43:34.114Z,1600
2017-06-22T09:44:33.802Z,4465
2017-06-22T09:45:33.789Z,5210
2017-06-22T09:46:33.789Z,4595
2017-06-22T09:47:33.786Z,4155
2017-06-22T09:48:33.777Z,4460
2017-06-22T09:49:33.770Z,4950
2017-06-22T09:50:34.094Z,4990
2017-06-22T09:51:33.764Z,5000
2017-06-22T09:52:34.061Z,3275
2017-06-22T09:53:34.060Z,5595
2017-06-22T09:54:34.070Z,4070
2017-06-22T09:55:34.060Z,2030
2017-06-22T09:56:34.056Z,1990
2017-06-22T09:57:34.053Z,5290
2017-06-22T09:58:33.732Z,5650
2017-06-22T09:59:33.728Z,4975
2017-06-22T10:00:33.728Z,3975
2017-06-22T10:01:33.713Z,4870
2017-06-22T10:02:33.710Z,1860
2017-06-22T10:03:33.728Z,1860
2017-06-22T10:04:34.012Z,1805
2017-06-22T10:05:33.705Z,1730
2017-06-22T10:06:34.003Z,1915
2017-06-22T10:07:34.003Z,2205
2017-06-22T10:08:33.997Z,4110
2017-06-22T10:09:33.686Z,5410
2017-06-22T10:10:33.685Z,5465
2017-06-22T10:11:33.682Z,5340
2017-06-22T10:12:33.373Z,4965
2017-06-22T10:13:33.667Z,5230
2017-06-22T10:14:33.670Z,5510
2017-06-22T10:15:33.661Z,4450
2017-06-22T10:16:33.659Z,4375
2017-06-22T10:17:33.653Z,4940
2017-06-22T10:18:33.654Z,4545
2017-06-22T10:19:33.654Z,4580
2017-06-22T10:20:33.650Z,5030
2017-06-22T10:21:33.943Z,4725
2017-06-22T10:22:33.640Z,4470
2017-06-22T10:23:33.944Z,4890
2017-06-22T10:24:33.630Z,2935
2017-06-22T10:25:33.930Z,5505
2017-06-22T10:26:33.024Z,4955
2017-06-22T10:27:33.623Z,4910
2017-06-22T10:28:33.622Z,3995
2017-06-22T10:29:33.620Z,2140
2017-06-22T10:30:33.618Z,4830
2017-06-22T10:31:33.605Z,4380
2017-06-22T10:32:33.909Z,4485
2017-06-22T10:33:33.607Z,4400
2017-06-22T10:34:33.600Z,4195
2017-06-22T10:35:33.604Z,4615
2017-06-22T10:36:33.596Z,5755
2017-06-22T10:37:33.296Z,6085
2017-06-22T10:38:33.890Z,5365
2017-06-22T10:39:33.894Z,5050
2017-06-22T10:40:33.586Z,5690
2017-06-22T10:41:33.918Z,5000
2017-06-22T10:42:33.575Z,4550
2017-06-22T10:43:33.875Z,5305
2017-06-22T10:44:33.873Z,5120
2017-06-22T10:45:33.872Z,4365
2017-06-22T10:46:33.565Z,4270
2017-06-22T10:47:33.864Z,5070
2017-06-22T10:48:33.867Z,5550
2017-06-22T10:49:33.254Z,4920
2017-06-22T10:50:33.558Z,4410
2017-06-22T10:51:33.853Z,5070
2017-06-22T10:52:33.852Z,2300
2017-06-22T10:53:33.851Z,1845
2017-06-22T10:54:33.847Z,1845
2017-06-22T10:55:33.555Z,1770
2017-06-22T10:56:33.237Z,1745
2017-06-22T10:57:32.931Z,4645
2017-06-22T10:58:33.234Z,5805
2017-06-22T10:59:33.220Z,6330
2017-06-22T11:00:33.828Z,4705
2017-06-22T11:01:33.817Z,4865
2017-06-22T11:02:33.826Z,2040
2017-06-22T11:03:33.516Z,1710
2017-06-22T11:04:33.520Z,3975
2017-06-22T11:05:33.510Z,5990
2017-06-22T11:06:33.812Z,3115
2017-06-22T11:07:33.808Z,8035
2017-06-22T11:08:33.805Z,7210
2017-06-22T11:09:33.832Z,6080
2017-06-22T11:10:33.492Z,5775
2017-06-22T11:11:33.494Z,5910
2017-06-22T11:12:33.790Z,6060
2017-06-22T11:13:33.490Z,6475
2017-06-22T11:14:33.787Z,6385
2017-06-22T11:15:33.784Z,5345
2017-06-22T11:16:33.790Z,4450
2017-06-22T11:17:33.782Z,4140
2017-06-22T11:18:32.871Z,3910
2017-06-22T11:19:33.768Z,3065
2017-06-22T11:20:33.478Z,2830
2017-06-22T11:21:33.463Z,2900
2017-06-22T11:22:33.171Z,2645
2017-06-22T11:23:32.862Z,2460
2017-06-22T11:24:33.462Z,2260
2017-06-22T11:25:33.455Z,2110
2017-06-22T11:26:33.155Z,2225
2017-06-22T11:27:33.149Z,2455
2017-06-22T11:28:33.746Z,2540
2017-06-22T11:29:33.142Z,2765
2017-06-22T11:30:33.745Z,2725
2017-06-22T11:31:33.767Z,2420
2017-06-22T11:32:33.437Z,3125
2017-06-22T11:33:33.734Z,4315
2017-06-22T11:34:33.150Z,4700
2017-06-22T11:35:33.731Z,4795
2017-06-22T11:36:33.126Z,5305
2017-06-22T11:37:33.135Z,5410
2017-06-22T11:38:33.719Z,4895
2017-06-22T11:39:33.113Z,5055
2017-06-22T11:40:33.410Z,5670
2017-06-22T11:41:33.710Z,5815
2017-06-22T11:42:33.707Z,5840
2017-06-22T11:43:33.705Z,6030
2017-06-22T11:44:33.703Z,6425
2017-06-22T11:45:33.703Z,6515
2017-06-22T11:46:33.694Z,5760
2017-06-22T11:47:33.723Z,5435
2017-06-22T11:48:33.694Z,6325
2017-06-22T11:49:33.693Z,7130
2017-06-22T11:50:33.384Z,6660
2017-06-22T11:51:33.679Z,6150
2017-06-22T11:52:33.681Z,5605
2017-06-22T11:53:33.679Z,4740
2017-06-22T11:54:33.681Z,4785
2017-06-22T11:55:33.675Z,5355
2017-06-22T11:56:33.367Z,5360
2017-06-22T11:57:33.401Z,5025
2017-06-22T11:58:33.662Z,5195
2017-06-22T11:59:33.663Z,5130
2017-06-22T12:00:33.663Z,4955
2017-06-22T12:01:33.657Z,5475
2017-06-22T12:02:33.347Z,5565
2017-06-22T12:03:33.345Z,5170
2017-06-22T12:04:33.345Z,4350
2017-06-22T12:05:33.651Z,3490
2017-06-22T12:06:33.643Z,3385
2017-06-22T12:07:33.642Z,3995
2017-06-22T12:08:33.350Z,5255
2017-06-22T12:09:33.628Z,3440
2017-06-22T12:10:33.632Z,4920
2017-06-22T12:11:33.326Z,5800
2017-06-22T12:12:33.325Z,1845
2017-06-22T12:13:33.019Z,2220
2017-06-22T12:14:33.333Z,2340
2017-06-22T12:15:33.319Z,5625
2017-06-22T12:16:33.617Z,5610
2017-06-22T12:17:33.613Z,5615
2017-06-22T12:18:33.318Z,5425
2017-06-22T12:19:33.311Z,2980
2017-06-22T12:20:33.606Z,5605
2017-06-22T12:21:33.007Z,1795
2017-06-22T12:22:33.304Z,2195
2017-06-22T12:23:33.606Z,1525
2017-06-22T12:24:33.000Z,1615
2017-06-22T12:25:33.298Z,1405
2017-06-22T12:26:33.298Z,1395
2017-06-22T12:27:32.986Z,1625
2017-06-22T12:28:32.983Z,7000
2017-06-22T12:29:33.292Z,6515
2017-06-22T12:30:33.285Z,5435
2017-06-22T12:31:33.288Z,5920
2017-06-22T12:32:33.283Z,6760
2017-06-22T12:33:33.282Z,6330
2017-06-22T12:34:32.977Z,5975
2017-06-22T12:35:33.272Z,2320
2017-06-22T12:36:33.573Z,2205
2017-06-22T12:37:33.272Z,1950
2017-06-22T12:38:33.270Z,1885
2017-06-22T12:39:33.568Z,1800
2017-06-22T12:40:33.276Z,2095
2017-06-22T12:41:33.265Z,5485
2017-06-22T12:42:33.560Z,4910
2017-06-22T12:43:33.561Z,4530
2017-06-22T12:44:33.555Z,4525
2017-06-22T12:45:33.260Z,4810
2017-06-22T12:46:33.259Z,4700
2017-06-22T12:47:33.555Z,4135
2017-06-22T12:48:33.555Z,4290
2017-06-22T12:49:33.247Z,5030
2017-06-22T12:50:33.553Z,5005
2017-06-22T12:51:33.249Z,5305
2017-06-22T12:52:33.249Z,3630
2017-06-22T12:53:33.541Z,2720
2017-06-22T12:54:33.545Z,4560
2017-06-22T12:55:33.552Z,3555
2017-06-22T12:56:33.542Z,6365
2017-06-22T12:57:33.551Z,3090
2017-06-22T12:58:33.541Z,5655
2017-06-22T12:59:33.239Z,4825
2017-06-22T13:00:33.539Z,5015
2017-06-22T13:01:33.539Z,5065
2017-06-22T13:02:33.235Z,6245
2017-06-22T13:03:33.552Z,3970
2017-06-22T13:04:33.534Z,4450
2017-06-22T13:05:33.527Z,5985
2017-06-22T13:06:33.225Z,2585
2017-06-22T13:07:32.917Z,2365
2017-06-22T13:08:33.520Z,1945
2017-06-22T13:09:33.524Z,1855
2017-06-22T13:10:32.918Z,3515
2017-06-22T13:11:33.218Z,5660
2017-06-22T13:12:33.519Z,2955
2017-06-22T13:13:33.207Z,2870
2017-06-22T13:14:33.504Z,5390
2017-06-22T13:15:33.202Z,5550
2017-06-22T13:16:33.203Z,5765
2017-06-22T13:17:33.211Z,5485
2017-06-22T13:18:33.197Z,5550
2017-06-22T13:19:33.499Z,5235
2017-06-22T13:20:33.194Z,1955
2017-06-22T13:21:33.508Z,1855
2017-06-22T13:22:33.196Z,1855
2017-06-22T13:23:33.192Z,2075
2017-06-22T13:24:32.885Z,1980
2017-06-22T13:25:33.186Z,1720
2017-06-22T13:26:33.185Z,1670
2017-06-22T13:27:33.183Z,1890
2017-06-22T13:28:33.485Z,2745
2017-06-22T13:29:33.201Z,2330
2017-06-22T13:30:33.172Z,2135
2017-06-22T13:31:33.201Z,2585
2017-06-22T13:32:33.475Z,4595
2017-06-22T13:33:33.471Z,4595
2017-06-22T13:34:33.470Z,4400
2017-06-22T13:35:33.472Z,3140
2017-06-22T13:36:33.162Z,4320
2017-06-22T13:37:33.462Z,2815
2017-06-22T13:38:33.462Z,2540
2017-06-22T13:39:33.460Z,2440
2017-06-22T13:40:33.457Z,2345
2017-06-22T13:41:33.459Z,2145
2017-06-22T13:42:33.151Z,2160
2017-06-22T13:43:33.455Z,2525
2017-06-22T13:44:33.447Z,3125
2017-06-22T13:45:33.451Z,4805
2017-06-22T13:46:33.445Z,4570